Trinidad, Washington
Current Conditions -  °F | °C
As of 6:53 AM on Sunday 23 Nov 2014 (Local Time) from KEPH Reporting Station
Clear Clear  
Wind Chill: 27°   Ceiling: Unl
Heat Index: 32°   Visibility: 10mi
Dew Point: 29°   Wind: 5mph
Humidity: 88%   Direction: 350°N
Pressure: 30.09"   Gusts: NA
Location:  47.1872°N, 119.812°W
Report Text: KEPH 231453Z AUTO 35004KT 10SM CLR 00/M02 A3009 RMK AO2 SLP201 T00001017 51005 $
Loading
Personal Weather Stations






























Interactive Weather Map New forecast layout! Learn more

10-Day Weather Forecast

Advertisements
Track Severe Weather on mobile